sensor_id;sensor_type;location;lat;lon;timestamp;temperature;humidity
83770;DHT22;73763;48.936;9.300;2024-02-21T00:01:35;6.40;98.90
83770;DHT22;73763;48.936;9.300;2024-02-21T00:04:21;6.40;99.40
83770;DHT22;73763;48.936;9.300;2024-02-21T00:06:51;6.20;99.10
83770;DHT22;73763;48.936;9.300;2024-02-21T00:09:23;6.30;99.20
83770;DHT22;73763;48.936;9.300;2024-02-21T00:12:03;6.20;99.30
83770;DHT22;73763;48.936;9.300;2024-02-21T00:14:34;6.20;99.30
83770;DHT22;73763;48.936;9.300;2024-02-21T00:17:00;6.20;99.50
83770;DHT22;73763;48.936;9.300;2024-02-21T00:19:45;6.10;99.50
83770;DHT22;73763;48.936;9.300;2024-02-21T00:22:16;6.20;99.40
83770;DHT22;73763;48.936;9.300;2024-02-21T00:24:50;6.30;99.80
83770;DHT22;73763;48.936;9.300;2024-02-21T00:27:38;6.20;99.70
83770;DHT22;73763;48.936;9.300;2024-02-21T00:30:08;6.20;99.70
83770;DHT22;73763;48.936;9.300;2024-02-21T00:32:44;6.20;99.70
83770;DHT22;73763;48.936;9.300;2024-02-21T00:35:10;6.20;99.50
83770;DHT22;73763;48.936;9.300;2024-02-21T00:37:35;6.20;99.50
83770;DHT22;73763;48.936;9.300;2024-02-21T00:40:29;6.20;99.90
83770;DHT22;73763;48.936;9.300;2024-02-21T00:42:57;6.30;99.30
83770;DHT22;73763;48.936;9.300;2024-02-21T00:45:25;6.20;99.10
83770;DHT22;73763;48.936;9.300;2024-02-21T00:47:53;6.20;99.20
83770;DHT22;73763;48.936;9.300;2024-02-21T00:50:23;6.30;99.30
83770;DHT22;73763;48.936;9.300;2024-02-21T00:52:49;6.30;99.40
83770;DHT22;73763;48.936;9.300;2024-02-21T00:55:26;6.30;99.30
83770;DHT22;73763;48.936;9.300;2024-02-21T00:57:52;6.40;99.50
83770;DHT22;73763;48.936;9.300;2024-02-21T01:01:02;6.30;99.50
83770;DHT22;73763;48.936;9.300;2024-02-21T01:03:38;6.30;99.20
83770;DHT22;73763;48.936;9.300;2024-02-21T01:06:07;6.40;99.40
83770;DHT22;73763;48.936;9.300;2024-02-21T01:08:43;6.30;99.50
83770;DHT22;73763;48.936;9.300;2024-02-21T01:11:15;6.30;99.50
83770;DHT22;73763;48.936;9.300;2024-02-21T01:13:53;6.30;99.50
83770;DHT22;73763;48.936;9.300;2024-02-21T01:16:23;6.30;99.50
83770;DHT22;73763;48.936;9.300;2024-02-21T01:18:48;6.30;99.90
83770;DHT22;73763;48.936;9.300;2024-02-21T01:21:19;6.20;99.60
83770;DHT22;73763;48.936;9.300;2024-02-21T01:24:11;6.20;99.60
83770;DHT22;73763;48.936;9.300;2024-02-21T01:26:36;6.20;99.50
83770;DHT22;73763;48.936;9.300;2024-02-21T01:29:15;6.20;99.40
83770;DHT22;73763;48.936;9.300;2024-02-21T01:32:00;6.20;99.50
83770;DHT22;73763;48.936;9.300;2024-02-21T01:34:28;6.20;99.60
83770;DHT22;73763;48.936;9.300;2024-02-21T01:36:59;6.10;99.50
83770;DHT22;73763;48.936;9.300;2024-02-21T01:39:30;6.10;99.50
83770;DHT22;73763;48.936;9.300;2024-02-21T01:41:59;6.10;99.50
83770;DHT22;73763;48.936;9.300;2024-02-21T01:44:27;6.20;99.50
83770;DHT22;73763;48.936;9.300;2024-02-21T01:46:56;6.30;99.50
83770;DHT22;73763;48.936;9.300;2024-02-21T01:49:35;6.10;99.20
83770;DHT22;73763;48.936;9.300;2024-02-21T01:52:01;6.20;99.40
83770;DHT22;73763;48.936;9.300;2024-02-21T01:54:32;6.20;99.30
83770;DHT22;73763;48.936;9.300;2024-02-21T01:57:00;6.20;99.20
83770;DHT22;73763;48.936;9.300;2024-02-21T01:59:50;6.10;99.40
83770;DHT22;73763;48.936;9.300;2024-02-21T02:02:18;6.10;99.40
83770;DHT22;73763;48.936;9.300;2024-02-21T02:04:47;6.10;99.30
83770;DHT22;73763;48.936;9.300;2024-02-21T02:07:45;6.10;99.10
83770;DHT22;73763;48.936;9.300;2024-02-21T02:10:18;6.10;99.00
83770;DHT22;73763;48.936;9.300;2024-02-21T02:12:53;6.10;99.20
83770;DHT22;73763;48.936;9.300;2024-02-21T02:15:22;6.20;99.20
83770;DHT22;73763;48.936;9.300;2024-02-21T02:17:56;6.10;99.10
83770;DHT22;73763;48.936;9.300;2024-02-21T02:20:24;6.20;99.20
83770;DHT22;73763;48.936;9.300;2024-02-21T02:22:52;6.10;99.40
83770;DHT22;73763;48.936;9.300;2024-02-21T02:25:39;6.10;99.50
83770;DHT22;73763;48.936;9.300;2024-02-21T02:28:13;6.10;99.50
83770;DHT22;73763;48.936;9.300;2024-02-21T02:30:44;6.20;99.30
83770;DHT22;73763;48.936;9.300;2024-02-21T02:33:18;6.10;99.30
83770;DHT22;73763;48.936;9.300;2024-02-21T02:35:57;6.10;99.50
83770;DHT22;73763;48.936;9.300;2024-02-21T02:38:27;6.20;99.50
83770;DHT22;73763;48.936;9.300;2024-02-21T02:40:56;6.10;99.60
83770;DHT22;73763;48.936;9.300;2024-02-21T02:43:29;6.10;99.60
83770;DHT22;73763;48.936;9.300;2024-02-21T02:46:03;6.10;99.90
83770;DHT22;73763;48.936;9.300;2024-02-21T02:48:31;6.00;99.90
83770;DHT22;73763;48.936;9.300;2024-02-21T02:50:59;6.00;99.90
83770;DHT22;73763;48.936;9.300;2024-02-21T02:53:27;6.00;99.90
83770;DHT22;73763;48.936;9.300;2024-02-21T02:56:00;6.00;99.90
83770;DHT22;73763;48.936;9.300;2024-02-21T02:58:28;5.90;99.90
83770;DHT22;73763;48.936;9.300;2024-02-21T03:00:57;5.90;99.90
83770;DHT22;73763;48.936;9.300;2024-02-21T03:03:27;5.80;99.90
83770;DHT22;73763;48.936;9.300;2024-02-21T03:05:55;5.90;99.90
83770;DHT22;73763;48.936;9.300;2024-02-21T03:08:26;5.90;99.90
83770;DHT22;73763;48.936;9.300;2024-02-21T03:10:54;5.80;99.90
83770;DHT22;73763;48.936;9.300;2024-02-21T03:13:25;5.80;99.90
83770;DHT22;73763;48.936;9.300;2024-02-21T03:15:51;5.70;99.90
83770;DHT22;73763;48.936;9.300;2024-02-21T03:18:19;5.80;99.90
83770;DHT22;73763;48.936;9.300;2024-02-21T03:20:45;5.80;99.90
83770;DHT22;73763;48.936;9.300;2024-02-21T03:23:11;5.80;99.90
83770;DHT22;73763;48.936;9.300;2024-02-21T03:25:36;5.90;99.90
83770;DHT22;73763;48.936;9.300;2024-02-21T03:28:07;5.80;99.90
83770;DHT22;73763;48.936;9.300;2024-02-21T03:30:35;5.70;99.90
83770;DHT22;73763;48.936;9.300;2024-02-21T03:33:04;5.70;99.90
83770;DHT22;73763;48.936;9.300;2024-02-21T03:35:29;5.60;99.90
83770;DHT22;73763;48.936;9.300;2024-02-21T03:37:55;5.50;99.90
83770;DHT22;73763;48.936;9.300;2024-02-21T03:40:21;5.50;99.90
83770;DHT22;73763;48.936;9.300;2024-02-21T03:42:51;5.50;99.90
83770;DHT22;73763;48.936;9.300;2024-02-21T03:45:28;5.50;99.90
83770;DHT22;73763;48.936;9.300;2024-02-21T03:47:55;5.50;99.90
83770;DHT22;73763;48.936;9.300;2024-02-21T03:50:20;5.50;99.90
83770;DHT22;73763;48.936;9.300;2024-02-21T03:52:55;5.50;99.90
83770;DHT22;73763;48.936;9.300;2024-02-21T03:55:29;5.60;99.90
83770;DHT22;73763;48.936;9.300;2024-02-21T03:58:08;5.50;99.90
83770;DHT22;73763;48.936;9.300;2024-02-21T04:00:39;5.50;99.90
83770;DHT22;73763;48.936;9.300;2024-02-21T04:03:05;5.50;99.90
83770;DHT22;73763;48.936;9.300;2024-02-21T04:05:30;5.50;99.90
83770;DHT22;73763;48.936;9.300;2024-02-21T04:08:04;5.60;99.90
83770;DHT22;73763;48.936;9.300;2024-02-21T04:10:34;5.60;99.90
83770;DHT22;73763;48.936;9.300;2024-02-21T04:13:02;5.60;99.90
83770;DHT22;73763;48.936;9.300;2024-02-21T04:15:33;5.70;99.90
83770;DHT22;73763;48.936;9.300;2024-02-21T04:17:59;5.60;99.90
83770;DHT22;73763;48.936;9.300;2024-02-21T04:20:27;5.60;99.90
83770;DHT22;73763;48.936;9.300;2024-02-21T04:22:55;5.60;99.90
83770;DHT22;73763;48.936;9.300;2024-02-21T04:25:21;5.60;99.90
83770;DHT22;73763;48.936;9.300;2024-02-21T04:27:52;5.70;99.90
83770;DHT22;73763;48.936;9.300;2024-02-21T04:30:18;5.60;99.90
83770;DHT22;73763;48.936;9.300;2024-02-21T04:32:44;5.60;99.90
83770;DHT22;73763;48.936;9.300;2024-02-21T04:35:17;5.50;99.90
83770;DHT22;73763;48.936;9.300;2024-02-21T04:37:42;5.50;99.90
83770;DHT22;73763;48.936;9.300;2024-02-21T04:40:11;5.40;99.90
83770;DHT22;73763;48.936;9.300;2024-02-21T04:42:39;5.40;99.90
83770;DHT22;73763;48.936;9.300;2024-02-21T04:45:10;5.30;99.90
83770;DHT22;73763;48.936;9.300;2024-02-21T04:47:42;5.30;99.90
83770;DHT22;73763;48.936;9.300;2024-02-21T04:50:13;5.20;99.90
83770;DHT22;73763;48.936;9.300;2024-02-21T04:52:49;5.20;99.90
83770;DHT22;73763;48.936;9.300;2024-02-21T04:55:25;5.20;99.90
83770;DHT22;73763;48.936;9.300;2024-02-21T04:57:51;5.10;99.90
83770;DHT22;73763;48.936;9.300;2024-02-21T05:00:17;5.10;99.90
83770;DHT22;73763;48.936;9.300;2024-02-21T05:02:45;5.10;99.90
83770;DHT22;73763;48.936;9.300;2024-02-21T05:05:14;5.20;99.90
83770;DHT22;73763;48.936;9.300;2024-02-21T05:07:45;5.10;99.90
83770;DHT22;73763;48.936;9.300;2024-02-21T05:10:35;5.10;99.90
83770;DHT22;73763;48.936;9.300;2024-02-21T05:13:05;5.00;99.90
83770;DHT22;73763;48.936;9.300;2024-02-21T05:15:33;5.00;99.90
83770;DHT22;73763;48.936;9.300;2024-02-21T05:17:59;5.10;99.90
83770;DHT22;73763;48.936;9.300;2024-02-21T05:20:25;5.00;99.90
83770;DHT22;73763;48.936;9.300;2024-02-21T05:22:53;5.00;99.90
83770;DHT22;73763;48.936;9.300;2024-02-21T05:25:19;5.00;99.90
83770;DHT22;73763;48.936;9.300;2024-02-21T05:27:44;5.00;99.90
83770;DHT22;73763;48.936;9.300;2024-02-21T05:30:11;5.10;99.90
83770;DHT22;73763;48.936;9.300;2024-02-21T05:32:40;5.10;99.90
83770;DHT22;73763;48.936;9.300;2024-02-21T05:35:10;5.00;99.90
83770;DHT22;73763;48.936;9.300;2024-02-21T05:37:41;5.00;99.90
83770;DHT22;73763;48.936;9.300;2024-02-21T05:40:11;5.00;99.90
83770;DHT22;73763;48.936;9.300;2024-02-21T05:42:36;5.00;99.90
83770;DHT22;73763;48.936;9.300;2024-02-21T05:45:02;4.90;99.90
83770;DHT22;73763;48.936;9.300;2024-02-21T05:47:28;4.80;99.90
83770;DHT22;73763;48.936;9.300;2024-02-21T05:49:53;4.90;99.90
83770;DHT22;73763;48.936;9.300;2024-02-21T05:52:19;4.70;99.90
83770;DHT22;73763;48.936;9.300;2024-02-21T05:54:45;4.70;99.90
83770;DHT22;73763;48.936;9.300;2024-02-21T05:57:11;4.80;99.90
83770;DHT22;73763;48.936;9.300;2024-02-21T05:59:40;4.80;99.90
83770;DHT22;73763;48.936;9.300;2024-02-21T06:02:05;4.70;99.90
83770;DHT22;73763;48.936;9.300;2024-02-21T06:04:31;4.70;99.90
83770;DHT22;73763;48.936;9.300;2024-02-21T06:06:57;4.70;99.90
83770;DHT22;73763;48.936;9.300;2024-02-21T06:09:22;4.70;99.90
83770;DHT22;73763;48.936;9.300;2024-02-21T06:11:48;4.70;99.90
83770;DHT22;73763;48.936;9.300;2024-02-21T06:14:16;4.70;99.90
83770;DHT22;73763;48.936;9.300;2024-02-21T06:16:46;4.60;99.90
83770;DHT22;73763;48.936;9.300;2024-02-21T06:19:12;4.60;99.90
83770;DHT22;73763;48.936;9.300;2024-02-21T06:21:40;4.70;99.90
83770;DHT22;73763;48.936;9.300;2024-02-21T06:24:09;4.70;99.90
83770;DHT22;73763;48.936;9.300;2024-02-21T06:26:37;4.80;99.90
83770;DHT22;73763;48.936;9.300;2024-02-21T06:29:03;4.80;99.80
83770;DHT22;73763;48.936;9.300;2024-02-21T06:31:29;5.00;99.60
83770;DHT22;73763;48.936;9.300;2024-02-21T06:33:57;4.90;99.50
83770;DHT22;73763;48.936;9.300;2024-02-21T06:36:26;5.00;99.40
83770;DHT22;73763;48.936;9.300;2024-02-21T06:38:53;5.10;99.20
83770;DHT22;73763;48.936;9.300;2024-02-21T06:41:19;5.00;99.10
83770;DHT22;73763;48.936;9.300;2024-02-21T06:43:45;5.10;99.10
83770;DHT22;73763;48.936;9.300;2024-02-21T06:46:11;5.10;99.00
83770;DHT22;73763;48.936;9.300;2024-02-21T06:48:39;5.20;98.80
83770;DHT22;73763;48.936;9.300;2024-02-21T06:51:07;5.20;98.80
83770;DHT22;73763;48.936;9.300;2024-02-21T06:53:33;5.20;99.00
83770;DHT22;73763;48.936;9.300;2024-02-21T06:55:59;5.20;99.00
83770;DHT22;73763;48.936;9.300;2024-02-21T06:58:24;5.20;98.80
83770;DHT22;73763;48.936;9.300;2024-02-21T07:00:50;5.20;98.80
83770;DHT22;73763;48.936;9.300;2024-02-21T07:03:16;5.30;98.80
83770;DHT22;73763;48.936;9.300;2024-02-21T07:05:46;5.40;98.40
83770;DHT22;73763;48.936;9.300;2024-02-21T07:08:11;5.50;98.30
83770;DHT22;73763;48.936;9.300;2024-02-21T07:10:37;5.60;98.10
83770;DHT22;73763;48.936;9.300;2024-02-21T07:13:03;5.70;97.80
83770;DHT22;73763;48.936;9.300;2024-02-21T07:15:34;5.70;97.60
83770;DHT22;73763;48.936;9.300;2024-02-21T07:17:59;5.80;97.60
83770;DHT22;73763;48.936;9.300;2024-02-21T07:20:25;5.90;97.60
83770;DHT22;73763;48.936;9.300;2024-02-21T07:22:50;5.90;97.40
83770;DHT22;73763;48.936;9.300;2024-02-21T07:25:16;6.00;97.20
83770;DHT22;73763;48.936;9.300;2024-02-21T07:27:43;6.10;96.90
83770;DHT22;73763;48.936;9.300;2024-02-21T07:30:09;6.30;96.60
83770;DHT22;73763;48.936;9.300;2024-02-21T07:32:34;6.70;96.30
83770;DHT22;73763;48.936;9.300;2024-02-21T07:35:00;7.30;95.00
83770;DHT22;73763;48.936;9.300;2024-02-21T07:37:25;8.20;93.80
83770;DHT22;73763;48.936;9.300;2024-02-21T07:39:51;8.90;92.60
83770;DHT22;73763;48.936;9.300;2024-02-21T07:42:16;9.20;91.10
83770;DHT22;73763;48.936;9.300;2024-02-21T07:44:42;9.60;90.60
83770;DHT22;73763;48.936;9.300;2024-02-21T07:47:07;10.00;89.60
83770;DHT22;73763;48.936;9.300;2024-02-21T07:49:33;10.10;87.20
83770;DHT22;73763;48.936;9.300;2024-02-21T07:52:05;10.20;87.50
83770;DHT22;73763;48.936;9.300;2024-02-21T07:54:31;10.00;87.70
83770;DHT22;73763;48.936;9.300;2024-02-21T07:56:56;10.10;88.50
83770;DHT22;73763;48.936;9.300;2024-02-21T07:59:22;10.40;87.00
83770;DHT22;73763;48.936;9.300;2024-02-21T08:01:47;10.50;85.90
83770;DHT22;73763;48.936;9.300;2024-02-21T08:04:13;10.50;85.60
83770;DHT22;73763;48.936;9.300;2024-02-21T08:06:38;10.40;85.30
83770;DHT22;73763;48.936;9.300;2024-02-21T08:09:04;10.30;86.60
83770;DHT22;73763;48.936;9.300;2024-02-21T08:11:29;10.40;86.10
83770;DHT22;73763;48.936;9.300;2024-02-21T08:13:55;10.60;85.20
83770;DHT22;73763;48.936;9.300;2024-02-21T08:16:20;10.40;84.00
83770;DHT22;73763;48.936;9.300;2024-02-21T08:18:46;10.30;85.50
83770;DHT22;73763;48.936;9.300;2024-02-21T08:21:11;10.60;85.70
83770;DHT22;73763;48.936;9.300;2024-02-21T08:23:37;10.80;85.70
83770;DHT22;73763;48.936;9.300;2024-02-21T08:26:05;11.00;84.50
83770;DHT22;73763;48.936;9.300;2024-02-21T08:28:31;11.40;84.50
83770;DHT22;73763;48.936;9.300;2024-02-21T08:30:56;11.50;83.00
83770;DHT22;73763;48.936;9.300;2024-02-21T08:33:22;11.30;84.60
83770;DHT22;73763;48.936;9.300;2024-02-21T08:35:47;11.20;84.60
83770;DHT22;73763;48.936;9.300;2024-02-21T08:38:13;11.10;85.30
83770;DHT22;73763;48.936;9.300;2024-02-21T08:40:38;10.80;85.80
83770;DHT22;73763;48.936;9.300;2024-02-21T08:43:04;10.70;84.00
83770;DHT22;73763;48.936;9.300;2024-02-21T08:45:29;10.50;87.80
83770;DHT22;73763;48.936;9.300;2024-02-21T08:47:55;10.70;87.00
83770;DHT22;73763;48.936;9.300;2024-02-21T08:50:20;10.50;86.90
83770;DHT22;73763;48.936;9.300;2024-02-21T08:52:46;10.50;88.90
83770;DHT22;73763;48.936;9.300;2024-02-21T08:55:11;10.70;87.20
83770;DHT22;73763;48.936;9.300;2024-02-21T08:57:37;10.70;87.30
83770;DHT22;73763;48.936;9.300;2024-02-21T09:00:06;10.60;87.10
83770;DHT22;73763;48.936;9.300;2024-02-21T09:02:31;10.50;87.60
83770;DHT22;73763;48.936;9.300;2024-02-21T09:04:57;10.70;87.20
83770;DHT22;73763;48.936;9.300;2024-02-21T09:07:22;10.80;86.30
83770;DHT22;73763;48.936;9.300;2024-02-21T09:09:48;10.60;86.80
83770;DHT22;73763;48.936;9.300;2024-02-21T09:12:13;10.40;86.20
83770;DHT22;73763;48.936;9.300;2024-02-21T09:14:39;10.20;86.40
83770;DHT22;73763;48.936;9.300;2024-02-21T09:17:04;10.40;88.30
83770;DHT22;73763;48.936;9.300;2024-02-21T09:19:30;10.40;86.50
83770;DHT22;73763;48.936;9.300;2024-02-21T09:21:55;10.50;89.20
83770;DHT22;73763;48.936;9.300;2024-02-21T09:24:21;10.70;87.80
83770;DHT22;73763;48.936;9.300;2024-02-21T09:26:46;10.80;87.70
83770;DHT22;73763;48.936;9.300;2024-02-21T09:29:12;11.00;86.30
83770;DHT22;73763;48.936;9.300;2024-02-21T09:31:37;11.30;85.70
83770;DHT22;73763;48.936;9.300;2024-02-21T09:34:04;11.70;83.80
83770;DHT22;73763;48.936;9.300;2024-02-21T09:36:30;12.10;81.30
83770;DHT22;73763;48.936;9.300;2024-02-21T09:38:55;12.40;77.70
83770;DHT22;73763;48.936;9.300;2024-02-21T09:41:26;12.50;78.50
83770;DHT22;73763;48.936;9.300;2024-02-21T09:43:52;12.40;78.10
83770;DHT22;73763;48.936;9.300;2024-02-21T09:46:19;12.40;77.40
83770;DHT22;73763;48.936;9.300;2024-02-21T09:51:33;12.70;75.10
83770;DHT22;73763;48.936;9.300;2024-02-21T09:53:59;12.90;74.10
83770;DHT22;73763;48.936;9.300;2024-02-21T09:56:25;12.70;75.10
83770;DHT22;73763;48.936;9.300;2024-02-21T09:58:51;12.60;76.50
83770;DHT22;73763;48.936;9.300;2024-02-21T10:01:16;12.70;76.40
83770;DHT22;73763;48.936;9.300;2024-02-21T10:03:42;13.20;75.30
83770;DHT22;73763;48.936;9.300;2024-02-21T10:06:07;13.70;73.10
83770;DHT22;73763;48.936;9.300;2024-02-21T10:08:33;14.10;70.00
83770;DHT22;73763;48.936;9.300;2024-02-21T10:10:58;14.30;66.90
83770;DHT22;73763;48.936;9.300;2024-02-21T10:13:28;14.20;67.00
83770;DHT22;73763;48.936;9.300;2024-02-21T10:16:06;14.10;65.60
83770;DHT22;73763;48.936;9.300;2024-02-21T10:18:33;14.40;65.30
83770;DHT22;73763;48.936;9.300;2024-02-21T10:21:06;14.70;63.10
83770;DHT22;73763;48.936;9.300;2024-02-21T10:23:45;15.10;59.30
83770;DHT22;73763;48.936;9.300;2024-02-21T10:26:11;15.90;59.00
83770;DHT22;73763;48.936;9.300;2024-02-21T10:28:37;16.00;56.70
83770;DHT22;73763;48.936;9.300;2024-02-21T10:31:03;15.70;57.80
83770;DHT22;73763;48.936;9.300;2024-02-21T10:33:28;15.60;56.60
83770;DHT22;73763;48.936;9.300;2024-02-21T10:35:54;14.90;58.40
83770;DHT22;73763;48.936;9.300;2024-02-21T10:38:19;14.40;59.80
83770;DHT22;73763;48.936;9.300;2024-02-21T10:40:46;14.50;61.50
83770;DHT22;73763;48.936;9.300;2024-02-21T10:43:14;14.60;61.20
83770;DHT22;73763;48.936;9.300;2024-02-21T10:45:41;14.80;61.80
83770;DHT22;73763;48.936;9.300;2024-02-21T10:48:13;15.10;59.40
83770;DHT22;73763;48.936;9.300;2024-02-21T10:50:57;15.00;60.20
83770;DHT22;73763;48.936;9.300;2024-02-21T10:53:35;14.70;60.30
83770;DHT22;73763;48.936;9.300;2024-02-21T10:56:30;14.90;58.00
83770;DHT22;73763;48.936;9.300;2024-02-21T10:58:58;14.30;60.50
83770;DHT22;73763;48.936;9.300;2024-02-21T11:01:23;14.10;63.80
83770;DHT22;73763;48.936;9.300;2024-02-21T11:03:51;14.20;60.80
83770;DHT22;73763;48.936;9.300;2024-02-21T11:06:19;14.20;60.30
83770;DHT22;73763;48.936;9.300;2024-02-21T11:08:45;14.10;61.70
83770;DHT22;73763;48.936;9.300;2024-02-21T11:11:12;14.00;64.60
83770;DHT22;73763;48.936;9.300;2024-02-21T11:13:38;14.30;61.10
83770;DHT22;73763;48.936;9.300;2024-02-21T11:16:11;14.60;58.90
83770;DHT22;73763;48.936;9.300;2024-02-21T11:18:38;14.40;60.90
83770;DHT22;73763;48.936;9.300;2024-02-21T11:21:04;14.50;60.70
83770;DHT22;73763;48.936;9.300;2024-02-21T11:23:29;14.40;60.60
83770;DHT22;73763;48.936;9.300;2024-02-21T11:26:05;14.30;62.20
83770;DHT22;73763;48.936;9.300;2024-02-21T11:28:31;13.90;59.80
83770;DHT22;73763;48.936;9.300;2024-02-21T11:31:16;13.70;64.90
83770;DHT22;73763;48.936;9.300;2024-02-21T11:33:42;13.70;65.30
83770;DHT22;73763;48.936;9.300;2024-02-21T11:36:11;13.90;64.00
83770;DHT22;73763;48.936;9.300;2024-02-21T11:38:36;14.40;63.60
83770;DHT22;73763;48.936;9.300;2024-02-21T11:41:02;14.80;58.30
83770;DHT22;73763;48.936;9.300;2024-02-21T11:43:28;14.90;59.90
83770;DHT22;73763;48.936;9.300;2024-02-21T11:46:01;14.80;58.80
83770;DHT22;73763;48.936;9.300;2024-02-21T11:48:26;15.10;57.00
83770;DHT22;73763;48.936;9.300;2024-02-21T11:50:56;15.00;55.70
83770;DHT22;73763;48.936;9.300;2024-02-21T11:53:22;15.00;55.60
83770;DHT22;73763;48.936;9.300;2024-02-21T11:55:47;15.50;54.80
83770;DHT22;73763;48.936;9.300;2024-02-21T11:58:14;16.00;53.40
83770;DHT22;73763;48.936;9.300;2024-02-21T12:00:40;16.50;53.00
83770;DHT22;73763;48.936;9.300;2024-02-21T12:03:06;16.60;52.20
83770;DHT22;73763;48.936;9.300;2024-02-21T12:05:32;16.20;51.70
83770;DHT22;73763;48.936;9.300;2024-02-21T12:07:58;15.50;52.10
83770;DHT22;73763;48.936;9.300;2024-02-21T12:10:23;15.40;54.10
83770;DHT22;73763;48.936;9.300;2024-02-21T12:12:50;15.00;57.20
83770;DHT22;73763;48.936;9.300;2024-02-21T12:15:18;15.00;55.70
83770;DHT22;73763;48.936;9.300;2024-02-21T12:17:44;14.90;57.30
83770;DHT22;73763;48.936;9.300;2024-02-21T12:20:09;15.00;56.70
83770;DHT22;73763;48.936;9.300;2024-02-21T12:22:35;15.00;54.30
83770;DHT22;73763;48.936;9.300;2024-02-21T12:25:15;15.00;55.20
83770;DHT22;73763;48.936;9.300;2024-02-21T12:27:41;15.00;55.20
83770;DHT22;73763;48.936;9.300;2024-02-21T12:30:07;14.60;56.10
83770;DHT22;73763;48.936;9.300;2024-02-21T12:32:32;14.70;56.30
83770;DHT22;73763;48.936;9.300;2024-02-21T12:34:58;14.90;56.00
83770;DHT22;73763;48.936;9.300;2024-02-21T12:37:24;15.20;54.00
83770;DHT22;73763;48.936;9.300;2024-02-21T12:39:50;15.20;53.50
83770;DHT22;73763;48.936;9.300;2024-02-21T12:42:16;14.90;55.40
83770;DHT22;73763;48.936;9.300;2024-02-21T12:44:41;14.80;55.40
83770;DHT22;73763;48.936;9.300;2024-02-21T12:47:07;14.80;54.60
83770;DHT22;73763;48.936;9.300;2024-02-21T12:49:32;15.10;55.00
83770;DHT22;73763;48.936;9.300;2024-02-21T12:51:58;15.40;54.10
83770;DHT22;73763;48.936;9.300;2024-02-21T12:54:23;15.70;52.70
83770;DHT22;73763;48.936;9.300;2024-02-21T12:56:49;15.80;51.60
83770;DHT22;73763;48.936;9.300;2024-02-21T12:59:14;15.80;51.80
83770;DHT22;73763;48.936;9.300;2024-02-21T13:01:40;16.00;52.60
83770;DHT22;73763;48.936;9.300;2024-02-21T13:04:05;16.10;53.00
83770;DHT22;73763;48.936;9.300;2024-02-21T13:06:33;16.30;51.60
83770;DHT22;73763;48.936;9.300;2024-02-21T13:08:59;16.10;52.20
83770;DHT22;73763;48.936;9.300;2024-02-21T13:11:24;16.10;51.00
83770;DHT22;73763;48.936;9.300;2024-02-21T13:13:50;15.90;51.30
83770;DHT22;73763;48.936;9.300;2024-02-21T13:16:15;15.80;51.90
83770;DHT22;73763;48.936;9.300;2024-02-21T13:18:41;15.80;51.80
83770;DHT22;73763;48.936;9.300;2024-02-21T13:21:06;15.80;51.20
83770;DHT22;73763;48.936;9.300;2024-02-21T13:23:32;15.80;52.60
83770;DHT22;73763;48.936;9.300;2024-02-21T13:25:58;15.70;52.10
83770;DHT22;73763;48.936;9.300;2024-02-21T13:28:23;15.70;52.40
83770;DHT22;73763;48.936;9.300;2024-02-21T13:30:49;15.70;53.00
83770;DHT22;73763;48.936;9.300;2024-02-21T13:33:14;15.70;54.40
83770;DHT22;73763;48.936;9.300;2024-02-21T13:35:40;15.90;52.90
83770;DHT22;73763;48.936;9.300;2024-02-21T13:38:05;16.00;52.70
83770;DHT22;73763;48.936;9.300;2024-02-21T13:40:31;15.90;53.50
83770;DHT22;73763;48.936;9.300;2024-02-21T13:42:57;15.70;52.00
83770;DHT22;73763;48.936;9.300;2024-02-21T13:45:22;15.70;52.20
83770;DHT22;73763;48.936;9.300;2024-02-21T13:47:48;15.80;52.00
83770;DHT22;73763;48.936;9.300;2024-02-21T13:50:13;15.70;52.40
83770;DHT22;73763;48.936;9.300;2024-02-21T13:52:39;15.70;51.10
83770;DHT22;73763;48.936;9.300;2024-02-21T13:55:05;15.80;50.90
83770;DHT22;73763;48.936;9.300;2024-02-21T13:57:30;15.60;51.20
83770;DHT22;73763;48.936;9.300;2024-02-21T13:59:56;15.60;53.20
83770;DHT22;73763;48.936;9.300;2024-02-21T14:02:21;15.70;53.00
83770;DHT22;73763;48.936;9.300;2024-02-21T14:04:47;15.60;52.50
83770;DHT22;73763;48.936;9.300;2024-02-21T14:07:13;15.70;54.00
83770;DHT22;73763;48.936;9.300;2024-02-21T14:09:38;15.60;55.10
83770;DHT22;73763;48.936;9.300;2024-02-21T14:12:04;15.50;56.10
83770;DHT22;73763;48.936;9.300;2024-02-21T14:14:30;15.40;55.50
83770;DHT22;73763;48.936;9.300;2024-02-21T14:16:55;15.30;55.60
83770;DHT22;73763;48.936;9.300;2024-02-21T14:19:21;15.10;55.90
83770;DHT22;73763;48.936;9.300;2024-02-21T14:21:46;15.00;56.90
83770;DHT22;73763;48.936;9.300;2024-02-21T14:24:12;14.90;58.70
83770;DHT22;73763;48.936;9.300;2024-02-21T14:26:37;14.70;60.10
83770;DHT22;73763;48.936;9.300;2024-02-21T14:29:03;14.70;60.10
83770;DHT22;73763;48.936;9.300;2024-02-21T14:31:32;14.60;62.50
83770;DHT22;73763;48.936;9.300;2024-02-21T14:33:57;14.60;60.40
83770;DHT22;73763;48.936;9.300;2024-02-21T14:36:23;14.50;61.60
83770;DHT22;73763;48.936;9.300;2024-02-21T14:38:48;14.50;64.00
83770;DHT22;73763;48.936;9.300;2024-02-21T14:41:14;14.50;62.90
83770;DHT22;73763;48.936;9.300;2024-02-21T14:43:39;14.40;63.50
83770;DHT22;73763;48.936;9.300;2024-02-21T14:46:05;14.40;64.80
83770;DHT22;73763;48.936;9.300;2024-02-21T14:48:31;14.50;66.40
83770;DHT22;73763;48.936;9.300;2024-02-21T14:50:58;14.40;63.70
83770;DHT22;73763;48.936;9.300;2024-02-21T14:53:24;14.30;61.30
83770;DHT22;73763;48.936;9.300;2024-02-21T14:55:50;14.40;63.70
83770;DHT22;73763;48.936;9.300;2024-02-21T14:58:16;14.40;62.70
83770;DHT22;73763;48.936;9.300;2024-02-21T15:00:42;14.30;65.90
83770;DHT22;73763;48.936;9.300;2024-02-21T15:03:07;14.20;65.60
83770;DHT22;73763;48.936;9.300;2024-02-21T15:05:34;14.20;66.00
83770;DHT22;73763;48.936;9.300;2024-02-21T15:07:59;14.00;67.40
83770;DHT22;73763;48.936;9.300;2024-02-21T15:10:25;13.90;66.80
83770;DHT22;73763;48.936;9.300;2024-02-21T15:12:50;13.70;68.00
83770;DHT22;73763;48.936;9.300;2024-02-21T15:15:16;13.50;70.90
83770;DHT22;73763;48.936;9.300;2024-02-21T15:17:41;13.30;73.20
83770;DHT22;73763;48.936;9.300;2024-02-21T15:20:07;13.20;73.20
83770;DHT22;73763;48.936;9.300;2024-02-21T15:22:33;13.10;74.20
83770;DHT22;73763;48.936;9.300;2024-02-21T15:24:59;13.00;74.90
83770;DHT22;73763;48.936;9.300;2024-02-21T15:27:24;13.00;75.20
83770;DHT22;73763;48.936;9.300;2024-02-21T15:29:50;12.90;75.10
83770;DHT22;73763;48.936;9.300;2024-02-21T15:32:15;12.80;76.60
83770;DHT22;73763;48.936;9.300;2024-02-21T15:34:41;12.70;78.80
83770;DHT22;73763;48.936;9.300;2024-02-21T15:37:06;12.60;78.60
83770;DHT22;73763;48.936;9.300;2024-02-21T15:39:32;12.40;79.10
83770;DHT22;73763;48.936;9.300;2024-02-21T15:41:57;12.40;80.00
83770;DHT22;73763;48.936;9.300;2024-02-21T15:44:23;12.30;80.70
83770;DHT22;73763;48.936;9.300;2024-02-21T15:46:48;12.30;80.90